createdAt,value
2022-09-24T00:01:35.519Z,12.10
2022-09-24T00:04:08.694Z,11.85
2022-09-24T00:06:40.923Z,12.50
2022-09-24T00:09:07.811Z,12.45
2022-09-24T00:11:35.681Z,11.82
2022-09-24T00:14:02.615Z,12.60
2022-09-24T00:16:33.962Z,13.93
2022-09-24T00:19:02.884Z,12.77
2022-09-24T00:21:39.687Z,13.13
2022-09-24T00:24:09.445Z,14.30
2022-09-24T00:26:51.866Z,14.68
2022-09-24T00:29:24.267Z,14.23
2022-09-24T00:31:52.775Z,13.30
2022-09-24T00:34:20.042Z,14.60
2022-09-24T00:36:46.943Z,15.32
2022-09-24T00:39:14.721Z,13.95
2022-09-24T00:41:47.089Z,14.30
2022-09-24T00:44:45.063Z,14.40
2022-09-24T00:47:14.206Z,13.40
2022-09-24T00:49:42.102Z,13.85
2022-09-24T00:52:09.039Z,13.63
2022-09-24T00:54:37.309Z,13.75
2022-09-24T00:57:04.342Z,14.60
2022-09-24T00:59:31.398Z,13.15
2022-09-24T01:01:59.121Z,14.10
2022-09-24T01:04:28.473Z,14.65
2022-09-24T01:06:56.505Z,14.70
2022-09-24T01:09:25.909Z,14.02
2022-09-24T01:11:59.318Z,14.45
2022-09-24T01:14:47.135Z,14.13
2022-09-24T01:17:47.658Z,15.20
2022-09-24T01:20:34.576Z,14.65
2022-09-24T01:23:17.127Z,15.15
2022-09-24T01:25:54.601Z,15.02
2022-09-24T01:28:58.810Z,15.02
2022-09-24T01:31:44.451Z,16.20
2022-09-24T01:34:15.558Z,15.40
2022-09-24T01:36:45.361Z,17.38
2022-09-24T01:39:14.656Z,16.75
2022-09-24T01:41:43.106Z,16.20
2022-09-24T01:44:11.806Z,16.02
2022-09-24T01:46:39.564Z,16.63
2022-09-24T01:49:07.293Z,15.75
2022-09-24T01:51:45.302Z,16.35
2022-09-24T01:54:25.230Z,16.63
2022-09-24T01:56:57.976Z,16.97
2022-09-24T01:59:30.578Z,17.25
2022-09-24T02:02:16.643Z,16.95
2022-09-24T02:04:47.618Z,15.20
2022-09-24T02:09:46.166Z,17.77
2022-09-24T02:12:29.553Z,16.75
2022-09-24T02:15:10.801Z,16.77
2022-09-24T02:17:41.210Z,18.35
2022-09-24T02:20:14.653Z,18.42
2022-09-24T02:22:43.570Z,19.08
2022-09-24T02:25:15.397Z,20.50
2022-09-24T02:27:42.156Z,18.55
2022-09-24T02:30:10.189Z,17.98
2022-09-24T02:32:39.949Z,18.23
2022-09-24T02:35:10.246Z,18.90
2022-09-24T02:37:39.983Z,18.67
2022-09-24T02:40:09.550Z,18.17
2022-09-24T02:42:37.783Z,18.33
2022-09-24T02:45:05.454Z,18.63
2022-09-24T02:47:32.482Z,19.55
2022-09-24T02:49:59.416Z,18.85
2022-09-24T02:52:26.447Z,19.48
2022-09-24T02:54:53.220Z,19.20
2022-09-24T02:57:20.385Z,19.25
2022-09-24T02:59:47.148Z,19.60
2022-09-24T03:02:15.184Z,19.98
2022-09-24T03:04:42.562Z,20.75
2022-09-24T03:07:10.232Z,20.33
2022-09-24T03:09:36.963Z,21.17
2022-09-24T03:12:05.115Z,19.65
2022-09-24T03:14:31.899Z,19.80
2022-09-24T03:16:58.637Z,18.85
2022-09-24T03:19:25.368Z,19.20
2022-09-24T03:21:52.463Z,20.08
2022-09-24T03:24:19.222Z,21.17
2022-09-24T03:26:45.874Z,20.48
2022-09-24T03:29:12.682Z,21.45
2022-09-24T03:31:39.455Z,22.17
2022-09-24T03:34:06.265Z,20.95
2022-09-24T03:36:32.998Z,22.52
2022-09-24T03:38:59.725Z,21.98
2022-09-24T03:41:27.661Z,23.08
2022-09-24T03:43:55.094Z,23.50
2022-09-24T03:46:24.265Z,22.83
2022-09-24T03:48:51.099Z,23.38
2022-09-24T03:51:20.078Z,22.02
2022-09-24T03:53:47.988Z,24.85
2022-09-24T03:56:16.005Z,22.65
2022-09-24T03:58:47.369Z,23.23
2022-09-24T04:01:21.844Z,24.75
2022-09-24T04:03:50.344Z,21.23
2022-09-24T04:06:22.094Z,21.33
2022-09-24T04:08:51.665Z,22.38
2022-09-24T04:11:18.367Z,21.35
2022-09-24T04:13:45.168Z,21.05
2022-09-24T04:16:12.081Z,20.98
2022-09-24T04:18:39.660Z,21.55
2022-09-24T04:21:06.894Z,21.25
2022-09-24T04:23:34.001Z,21.05
2022-09-24T04:26:02.250Z,20.27
2022-09-24T04:28:30.302Z,20.60
2022-09-24T04:30:57.274Z,21.77
2022-09-24T04:33:24.137Z,24.13
2022-09-24T04:35:50.773Z,19.42
2022-09-24T04:38:18.658Z,19.60
2022-09-24T04:40:47.377Z,19.95
2022-09-24T04:43:14.398Z,20.58
2022-09-24T04:45:43.150Z,21.45
2022-09-24T04:48:10.019Z,23.05
2022-09-24T04:50:43.291Z,19.52
2022-09-24T04:53:12.404Z,19.95
2022-09-24T04:55:39.570Z,19.05
2022-09-24T04:58:06.531Z,18.60
2022-09-24T05:00:33.460Z,19.10
2022-09-24T05:03:04.969Z,18.63
2022-09-24T05:05:33.064Z,18.50
2022-09-24T05:08:01.623Z,28.20
2022-09-24T05:10:29.895Z,25.25
2022-09-24T05:12:56.789Z,24.08
2022-09-24T05:15:23.789Z,19.50
2022-09-24T05:17:50.570Z,19.25
2022-09-24T05:20:17.531Z,18.75
2022-09-24T05:22:45.953Z,23.75
2022-09-24T05:25:14.362Z,20.25
2022-09-24T05:27:48.507Z,18.85
2022-09-24T05:30:16.281Z,20.38
2022-09-24T05:32:43.335Z,18.98
2022-09-24T05:35:10.430Z,19.95
2022-09-24T05:37:39.467Z,21.30
2022-09-24T05:40:25.812Z,18.42
2022-09-24T05:42:59.155Z,18.15
2022-09-24T05:45:25.821Z,17.27
2022-09-24T05:47:52.762Z,17.98
2022-09-24T05:50:19.463Z,18.85
2022-09-24T05:52:46.235Z,17.73
2022-09-24T05:55:13.127Z,16.30
2022-09-24T05:57:39.925Z,16.15
2022-09-24T06:00:07.501Z,16.55
2022-09-24T06:02:34.347Z,15.55
2022-09-24T06:05:01.112Z,16.42
2022-09-24T06:07:27.942Z,15.90
2022-09-24T06:09:55.337Z,14.85
2022-09-24T06:12:22.408Z,18.13
2022-09-24T06:14:49.151Z,16.65
2022-09-24T06:17:15.842Z,17.25
2022-09-24T06:19:42.974Z,15.82
2022-09-24T06:22:09.774Z,15.05
2022-09-24T06:24:37.048Z,18.38
2022-09-24T06:27:03.885Z,16.38
2022-09-24T06:29:30.596Z,16.30
2022-09-24T06:31:57.284Z,15.32
2022-09-24T06:34:24.092Z,15.43
2022-09-24T06:36:55.075Z,15.70
2022-09-24T06:39:23.802Z,14.48
2022-09-24T06:41:51.507Z,15.02
2022-09-24T06:44:19.219Z,16.55
2022-09-24T06:46:47.263Z,15.85
2022-09-24T06:49:14.217Z,15.80
2022-09-24T06:51:40.950Z,15.25
2022-09-24T06:54:09.039Z,16.75
2022-09-24T06:56:35.843Z,19.27
2022-09-24T06:59:02.686Z,16.00
2022-09-24T07:01:29.816Z,16.17
2022-09-24T07:03:56.646Z,15.10
2022-09-24T07:06:23.464Z,15.00
2022-09-24T07:08:53.401Z,14.13
2022-09-24T07:11:20.222Z,16.23
2022-09-24T07:13:46.950Z,15.77
2022-09-24T07:16:13.947Z,15.50
2022-09-24T07:18:40.647Z,15.80
2022-09-24T07:21:07.405Z,15.25
2022-09-24T07:23:34.839Z,14.50
2022-09-24T07:26:01.575Z,16.02
2022-09-24T07:28:28.328Z,15.32
2022-09-24T07:30:59.507Z,16.85
2022-09-24T07:33:26.633Z,15.80
2022-09-24T07:35:53.445Z,15.35
2022-09-24T07:38:20.233Z,15.82
2022-09-24T07:40:47.034Z,17.30
2022-09-24T07:43:14.673Z,14.90
2022-09-24T07:45:42.574Z,17.40
2022-09-24T07:48:10.347Z,14.95
2022-09-24T07:50:41.777Z,15.80
2022-09-24T07:53:12.835Z,14.93
2022-09-24T07:55:41.071Z,15.32
2022-09-24T07:58:14.877Z,16.20
2022-09-24T08:00:41.738Z,16.65
2022-09-24T08:03:08.508Z,15.88
2022-09-24T08:05:35.275Z,15.48
2022-09-24T08:08:02.112Z,15.63
2022-09-24T08:10:29.210Z,14.60
2022-09-24T08:12:57.208Z,17.73
2022-09-24T08:15:24.329Z,17.55
2022-09-24T08:17:51.386Z,16.08
2022-09-24T08:20:18.272Z,16.15
2022-09-24T08:22:45.073Z,15.75
2022-09-24T08:25:11.829Z,15.05
2022-09-24T08:27:39.002Z,15.27
2022-09-24T08:30:06.891Z,17.17
2022-09-24T08:32:33.641Z,15.23
2022-09-24T08:35:00.520Z,15.07
2022-09-24T08:37:30.195Z,14.75
2022-09-24T08:39:57.437Z,15.15
2022-09-24T08:43:07.794Z,14.13
2022-09-24T08:46:01.416Z,13.18
2022-09-24T08:48:33.188Z,13.77
2022-09-24T08:51:04.469Z,13.68
2022-09-24T08:53:41.072Z,13.70
2022-09-24T08:56:09.798Z,14.05
2022-09-24T08:59:24.510Z,15.75
2022-09-24T09:02:13.410Z,15.65
2022-09-24T09:05:01.397Z,15.32
2022-09-24T09:07:49.079Z,16.73
2022-09-24T09:10:27.747Z,15.27
2022-09-24T09:13:00.418Z,14.85
2022-09-24T09:15:38.595Z,15.25
2022-09-24T09:18:31.373Z,15.70
2022-09-24T09:21:14.889Z,15.75
2022-09-24T09:23:48.471Z,16.73
2022-09-24T09:26:20.621Z,14.57
2022-09-24T09:28:48.508Z,13.98
2022-09-24T09:31:32.945Z,14.48
2022-09-24T09:34:18.710Z,14.98
2022-09-24T09:37:07.299Z,14.93
2022-09-24T09:39:53.702Z,15.80
2022-09-24T09:42:36.302Z,14.40
2022-09-24T09:45:29.712Z,14.60
2022-09-24T09:48:01.092Z,13.45
2022-09-24T09:50:39.386Z,14.00
2022-09-24T09:53:06.237Z,13.13
2022-09-24T09:55:37.501Z,16.88
2022-09-24T09:58:16.366Z,14.05
2022-09-24T10:00:43.876Z,13.35
2022-09-24T10:03:26.245Z,12.77
2022-09-24T10:06:06.326Z,12.55
2022-09-24T10:08:33.469Z,11.50
2022-09-24T10:11:01.553Z,11.45
2022-09-24T10:13:28.415Z,11.50
2022-09-24T10:16:00.654Z,12.85
2022-09-24T10:18:34.827Z,13.68
2022-09-24T10:21:09.950Z,12.25
2022-09-24T10:23:39.882Z,12.40
2022-09-24T10:26:07.623Z,11.60
2022-09-24T10:28:58.403Z,11.88
2022-09-24T10:31:29.431Z,11.05
2022-09-24T10:33:59.026Z,10.98
2022-09-24T10:36:32.582Z,10.32
2022-09-24T10:39:08.462Z,10.88
2022-09-24T10:41:35.909Z,10.70
2022-09-24T10:44:13.511Z,11.27
2022-09-24T10:47:05.111Z,10.95
2022-09-24T10:49:38.189Z,10.73
2022-09-24T10:52:10.282Z,11.38
2022-09-24T10:54:57.119Z,11.80
2022-09-24T10:58:20.262Z,10.60
2022-09-24T11:00:58.066Z,11.05
2022-09-24T11:04:00.957Z,11.73
2022-09-24T11:06:42.654Z,11.93
2022-09-24T11:09:38.970Z,11.68
2022-09-24T11:12:36.474Z,11.60
2022-09-24T11:15:06.359Z,11.80
2022-09-24T11:17:47.406Z,12.03
2022-09-24T11:20:37.598Z,12.70
2022-09-24T11:23:13.560Z,12.95
2022-09-24T11:25:51.363Z,12.23
2022-09-24T11:28:23.171Z,12.63
2022-09-24T11:30:56.500Z,11.82
2022-09-24T11:33:34.863Z,13.20
2022-09-24T11:36:36.326Z,11.82
2022-09-24T11:39:21.877Z,13.27
2022-09-24T11:42:06.631Z,13.60
2022-09-24T11:44:54.990Z,12.90
2022-09-24T11:47:45.358Z,13.27
2022-09-24T11:50:31.084Z,13.70
2022-09-24T11:53:05.038Z,12.75
2022-09-24T11:55:53.671Z,18.45
2022-09-24T11:58:35.142Z,17.15
2022-09-24T12:01:22.678Z,13.73
2022-09-24T12:03:57.076Z,13.02
2022-09-24T12:06:31.348Z,13.55
2022-09-24T12:09:07.407Z,12.32
2022-09-24T12:11:41.468Z,14.82
2022-09-24T12:14:17.443Z,14.77
2022-09-24T12:16:47.657Z,14.82
2022-09-24T12:19:41.140Z,14.00
2022-09-24T12:22:10.520Z,14.68
2022-09-24T12:24:42.606Z,17.33
2022-09-24T12:27:37.050Z,15.35
2022-09-24T12:30:40.227Z,15.05
2022-09-24T12:33:15.695Z,14.77
2022-09-24T12:36:04.431Z,14.40
2022-09-24T12:39:06.142Z,13.93
2022-09-24T12:41:45.903Z,14.73
2022-09-24T12:44:21.957Z,14.70
2022-09-24T12:46:53.085Z,15.00
2022-09-24T12:51:55.701Z,14.30
2022-09-24T12:54:30.302Z,15.10
2022-09-24T12:57:15.102Z,15.45
2022-09-24T12:59:50.572Z,14.77
2022-09-24T13:02:25.943Z,15.52
2022-09-24T13:05:02.023Z,15.05
2022-09-24T13:07:37.634Z,15.40
2022-09-24T13:10:32.242Z,16.33
2022-09-24T13:13:00.502Z,15.20
2022-09-24T13:15:34.548Z,15.93
2022-09-24T13:18:11.042Z,16.52
2022-09-24T13:20:49.261Z,15.52
2022-09-24T13:23:20.402Z,16.65
2022-09-24T13:26:09.108Z,16.25
2022-09-24T13:28:58.565Z,16.63
2022-09-24T13:31:41.352Z,15.80
2022-09-24T13:34:11.148Z,16.15
2022-09-24T13:36:59.494Z,15.60
2022-09-24T13:39:45.957Z,16.02
2022-09-24T13:42:27.203Z,15.25
2022-09-24T13:45:00.472Z,15.30
2022-09-24T13:47:32.675Z,15.40
2022-09-24T13:50:07.197Z,14.73
2022-09-24T13:52:38.542Z,14.93
2022-09-24T13:55:21.523Z,15.13
2022-09-24T13:57:48.324Z,15.25
2022-09-24T14:00:21.098Z,15.32
2022-09-24T14:03:04.954Z,15.43
2022-09-24T14:05:38.653Z,14.10
2022-09-24T14:08:08.712Z,15.65
2022-09-24T14:10:36.552Z,16.05
2022-09-24T14:13:21.676Z,16.30
2022-09-24T14:15:57.804Z,16.33
2022-09-24T14:18:26.948Z,19.02
2022-09-24T14:21:33.242Z,16.17
2022-09-24T14:24:20.716Z,16.45
2022-09-24T14:26:56.460Z,16.45
2022-09-24T14:29:48.120Z,17.23
2022-09-24T14:32:32.381Z,16.85
2022-09-24T14:35:03.701Z,17.38
2022-09-24T14:37:37.756Z,17.60
2022-09-24T14:40:14.192Z,17.30
2022-09-24T14:42:47.074Z,17.45
2022-09-24T14:45:26.934Z,16.90
2022-09-24T14:48:01.986Z,17.08
2022-09-24T14:50:37.574Z,18.40
2022-09-24T14:53:23.679Z,16.60
2022-09-24T14:55:51.386Z,17.77
2022-09-24T14:58:31.158Z,15.70
2022-09-24T15:01:07.137Z,16.95
2022-09-24T15:03:39.076Z,18.63
2022-09-24T15:06:30.205Z,16.48
2022-09-24T15:08:57.947Z,17.83
2022-09-24T15:11:29.521Z,19.85
2022-09-24T15:14:13.562Z,18.48
2022-09-24T15:16:40.257Z,18.63
2022-09-24T15:19:06.928Z,17.58
2022-09-24T15:21:34.347Z,17.20
2022-09-24T15:24:01.342Z,18.58
2022-09-24T15:26:31.377Z,16.30
2022-09-24T15:28:59.290Z,17.10
2022-09-24T15:31:26.221Z,19.02
2022-09-24T15:33:53.549Z,17.85
2022-09-24T15:36:21.208Z,18.48
2022-09-24T15:38:49.929Z,17.63
2022-09-24T15:41:16.936Z,17.27
2022-09-24T15:43:43.661Z,18.27
2022-09-24T15:46:10.424Z,19.23
2022-09-24T15:48:37.683Z,19.73
2022-09-24T15:51:10.941Z,18.23
2022-09-24T15:53:41.361Z,18.27
2022-09-24T15:56:08.094Z,17.98
2022-09-24T15:58:35.059Z,15.98
2022-09-24T16:01:02.043Z,15.70
2022-09-24T16:03:31.821Z,16.55
2022-09-24T16:06:00.000Z,15.25
2022-09-24T16:08:27.034Z,16.02
2022-09-24T16:10:53.784Z,16.33
2022-09-24T16:13:23.290Z,23.98
2022-09-24T16:15:50.119Z,19.33
2022-09-24T16:18:22.237Z,17.65
2022-09-24T16:20:49.901Z,16.52
2022-09-24T16:23:17.747Z,15.32
2022-09-24T16:25:55.864Z,15.98
2022-09-24T16:28:22.842Z,15.73
2022-09-24T16:30:49.727Z,15.85
2022-09-24T16:33:16.641Z,17.38
2022-09-24T16:35:43.807Z,17.05
2022-09-24T16:38:10.675Z,16.90
2022-09-24T16:40:37.726Z,18.00
2022-09-24T16:43:04.766Z,17.95
2022-09-24T16:45:32.531Z,17.80
2022-09-24T16:47:59.763Z,16.50
2022-09-24T16:50:26.868Z,16.17
2022-09-24T16:52:55.372Z,17.77
2022-09-24T16:55:25.704Z,16.23
2022-09-24T16:57:53.135Z,16.10
2022-09-24T17:00:20.631Z,16.77
2022-09-24T17:02:47.458Z,17.70
2022-09-24T17:05:14.285Z,17.20
2022-09-24T17:07:40.983Z,16.75
2022-09-24T17:10:16.224Z,16.48
2022-09-24T17:12:50.344Z,18.65
2022-09-24T17:15:20.711Z,16.60
2022-09-24T17:17:50.715Z,16.90
2022-09-24T17:20:19.116Z,17.17
2022-09-24T17:22:48.126Z,16.38
2022-09-24T17:25:15.619Z,17.45
2022-09-24T17:27:44.875Z,16.92
2022-09-24T17:30:12.199Z,17.42
2022-09-24T17:32:38.978Z,16.25
2022-09-24T17:35:07.809Z,16.85
2022-09-24T17:37:35.232Z,15.77
2022-09-24T17:40:02.793Z,17.45
2022-09-24T17:42:31.608Z,16.80
2022-09-24T17:44:58.345Z,16.75
2022-09-24T17:47:45.044Z,15.30
2022-09-24T17:50:11.709Z,16.08
2022-09-24T17:52:38.387Z,17.75
2022-09-24T17:55:08.351Z,17.73
2022-09-24T17:57:35.090Z,17.93
2022-09-24T18:00:01.984Z,16.20
2022-09-24T18:02:28.998Z,16.85
2022-09-24T18:04:55.742Z,15.48
2022-09-24T18:07:24.797Z,16.30
2022-09-24T18:09:55.890Z,17.45
2022-09-24T18:12:22.755Z,16.02
2022-09-24T18:14:49.440Z,15.90
2022-09-24T18:17:16.163Z,17.13
2022-09-24T18:19:42.856Z,17.17
2022-09-24T18:22:11.098Z,17.65
2022-09-24T18:24:37.754Z,15.98
2022-09-24T18:27:05.201Z,16.42
2022-09-24T18:29:31.955Z,15.98
2022-09-24T18:31:58.843Z,17.17
2022-09-24T18:34:25.521Z,16.02
2022-09-24T18:36:52.308Z,17.02
2022-09-24T18:39:24.973Z,17.65
2022-09-24T18:41:52.712Z,15.88
2022-09-24T18:44:19.647Z,16.20
2022-09-24T18:46:46.667Z,17.60
2022-09-24T18:49:13.646Z,19.83
2022-09-24T18:51:40.486Z,17.25
2022-09-24T18:54:18.047Z,16.77
2022-09-24T18:56:45.633Z,17.08
2022-09-24T18:59:15.444Z,17.55
2022-09-24T19:01:43.191Z,17.45
2022-09-24T19:04:11.661Z,18.85
2022-09-24T19:06:41.114Z,20.02
2022-09-24T19:09:09.103Z,19.73
2022-09-24T19:11:36.996Z,19.25
2022-09-24T19:14:03.994Z,18.35
2022-09-24T19:16:31.069Z,19.27
2022-09-24T19:18:59.439Z,18.83
2022-09-24T19:21:26.230Z,23.83
2022-09-24T19:23:56.239Z,25.85
2022-09-24T19:26:26.415Z,23.00
2022-09-24T19:28:54.093Z,21.65
2022-09-24T19:31:27.312Z,20.33
2022-09-24T19:33:55.222Z,18.80
2022-09-24T19:36:22.441Z,17.40
2022-09-24T19:38:50.196Z,17.08
2022-09-24T19:41:26.486Z,16.63
2022-09-24T19:44:01.101Z,17.67
2022-09-24T19:46:34.526Z,17.08
2022-09-24T19:49:01.870Z,17.00
2022-09-24T19:51:31.008Z,17.15
2022-09-24T19:54:03.302Z,17.17
2022-09-24T19:56:31.904Z,16.45
2022-09-24T19:59:00.878Z,20.42
2022-09-24T20:01:32.213Z,19.10
2022-09-24T20:04:02.006Z,23.38
2022-09-24T20:06:31.185Z,22.13
2022-09-24T20:08:59.335Z,20.90
2022-09-24T20:11:27.203Z,20.65
2022-09-24T20:13:56.195Z,20.55
2022-09-24T20:16:26.131Z,17.58
2022-09-24T20:18:56.643Z,17.67
2022-09-24T20:21:28.786Z,17.88
2022-09-24T20:23:57.547Z,17.60
2022-09-24T20:26:43.723Z,17.85
2022-09-24T20:29:11.936Z,18.42
2022-09-24T20:31:45.738Z,18.50
2022-09-24T20:34:12.557Z,18.45
2022-09-24T20:36:39.307Z,16.92
2022-09-24T20:39:06.001Z,17.55
2022-09-24T20:41:32.769Z,17.15
2022-09-24T20:43:59.438Z,16.60
2022-09-24T20:46:28.430Z,17.60
2022-09-24T20:49:00.203Z,16.48
2022-09-24T20:51:33.463Z,17.55
2022-09-24T20:54:00.856Z,16.67
2022-09-24T20:56:30.558Z,16.50
2022-09-24T20:58:57.632Z,17.73
2022-09-24T21:01:24.888Z,16.67
2022-09-24T21:03:51.918Z,17.83
2022-09-24T21:06:22.747Z,19.83
2022-09-24T21:11:19.534Z,18.55
2022-09-24T21:13:51.878Z,18.25
2022-09-24T21:16:20.716Z,18.67
2022-09-24T21:18:48.677Z,19.58
2022-09-24T21:21:21.200Z,18.63
2022-09-24T21:23:50.370Z,19.00
2022-09-24T21:26:18.525Z,20.60
2022-09-24T21:28:50.750Z,21.08
2022-09-24T21:31:23.783Z,18.77
2022-09-24T21:33:52.863Z,19.83
2022-09-24T21:36:21.342Z,19.17
2022-09-24T21:38:54.493Z,19.60
2022-09-24T21:41:34.862Z,18.92
2022-09-24T21:44:02.013Z,20.60
2022-09-24T21:46:31.284Z,19.35
2022-09-24T21:49:01.777Z,20.42
2022-09-24T21:51:29.994Z,21.70
2022-09-24T21:54:04.727Z,19.33
2022-09-24T21:56:33.118Z,20.17
2022-09-24T21:58:59.973Z,20.05
2022-09-24T22:01:29.837Z,20.10
2022-09-24T22:04:03.997Z,20.10
2022-09-24T22:06:31.400Z,19.08
2022-09-24T22:09:02.556Z,24.85
2022-09-24T22:11:29.572Z,25.50
2022-09-24T22:14:01.028Z,20.30
2022-09-24T22:16:29.253Z,20.27
2022-09-24T22:18:56.198Z,18.45
2022-09-24T22:21:23.262Z,20.45
2022-09-24T22:23:50.129Z,20.83
2022-09-24T22:26:18.667Z,20.90
2022-09-24T22:28:45.708Z,20.60
2022-09-24T22:31:15.325Z,19.83
2022-09-24T22:34:01.179Z,19.90
2022-09-24T22:36:30.486Z,20.58
2022-09-24T22:39:02.375Z,19.60
2022-09-24T22:41:30.313Z,20.98
2022-09-24T22:43:58.146Z,21.92
2022-09-24T22:46:26.885Z,21.38
2022-09-24T22:48:57.097Z,20.08
2022-09-24T22:51:26.915Z,21.17
2022-09-24T22:53:54.515Z,22.13
2022-09-24T22:56:25.681Z,21.40
2022-09-24T22:58:54.826Z,21.23
2022-09-24T23:01:28.461Z,20.75
2022-09-24T23:03:56.919Z,21.27
2022-09-24T23:06:24.463Z,21.80
2022-09-24T23:08:53.252Z,19.52
2022-09-24T23:11:24.593Z,19.33
2022-09-24T23:13:54.837Z,17.13
2022-09-24T23:16:24.773Z,18.45
2022-09-24T23:18:55.116Z,17.25
2022-09-24T23:21:24.073Z,16.38
2022-09-24T23:23:56.154Z,17.25
2022-09-24T23:26:24.549Z,15.98
2022-09-24T23:28:53.234Z,14.98
2022-09-24T23:31:27.229Z,13.75
2022-09-24T23:33:55.809Z,16.73
2022-09-24T23:36:23.810Z,15.82
2022-09-24T23:38:50.688Z,14.15
2022-09-24T23:41:17.490Z,14.50
2022-09-24T23:43:44.257Z,14.88
2022-09-24T23:46:11.493Z,15.43
2022-09-24T23:48:38.462Z,15.88
2022-09-24T23:51:06.685Z,15.57
2022-09-24T23:53:34.367Z,15.80
2022-09-24T23:56:02.097Z,14.60
2022-09-24T23:58:29.350Z,14.73
